createdAt,value
2018-09-02T00:03:44.649Z,14.60
2018-09-02T00:07:38.650Z,14.60
2018-09-02T00:11:32.557Z,14.60
2018-09-02T00:15:26.493Z,14.70
2018-09-02T00:19:20.377Z,14.70
2018-09-02T00:23:14.348Z,14.70
2018-09-02T00:27:10.072Z,14.70
2018-09-02T00:31:03.984Z,14.70
2018-09-02T00:34:58.043Z,14.70
2018-09-02T00:38:52.094Z,14.70
2018-09-02T00:42:46.115Z,14.60
2018-09-02T00:46:40.097Z,14.70
2018-09-02T00:50:34.076Z,14.50
2018-09-02T00:54:28.111Z,14.50
2018-09-02T00:58:22.099Z,14.40
2018-09-02T01:02:16.078Z,14.50
2018-09-02T01:06:10.055Z,14.40
2018-09-02T01:10:04.008Z,14.40
2018-09-02T01:13:58.318Z,14.30
2018-09-02T01:17:52.252Z,14.40
2018-09-02T01:21:46.134Z,14.30
2018-09-02T01:25:40.446Z,14.20
2018-09-02T01:29:34.427Z,14.20
2018-09-02T01:33:28.371Z,14.00
2018-09-02T01:37:22.255Z,14.00
2018-09-02T01:41:16.188Z,14.00
2018-09-02T01:45:10.102Z,14.00
2018-09-02T01:49:04.120Z,13.90
2018-09-02T01:52:58.728Z,14.00
2018-09-02T01:56:53.527Z,14.00
2018-09-02T02:00:47.527Z,13.90
2018-09-02T02:04:42.052Z,13.80
2018-09-02T02:08:36.049Z,13.90
2018-09-02T02:12:30.443Z,13.90
2018-09-02T02:16:24.478Z,13.80
2018-09-02T02:20:18.494Z,13.70
2018-09-02T02:24:12.446Z,13.70
2018-09-02T02:28:06.501Z,13.60
2018-09-02T02:32:00.695Z,13.60
2018-09-02T02:35:54.672Z,13.50
2018-09-02T02:39:48.677Z,13.50
2018-09-02T02:43:42.641Z,13.40
2018-09-02T02:47:36.612Z,13.40
2018-09-02T02:51:30.645Z,13.40
2018-09-02T03:00:33.584Z,13.30
2018-09-02T03:04:27.632Z,13.30
2018-09-02T03:08:22.342Z,13.30
2018-09-02T03:12:16.352Z,13.20
2018-09-02T03:16:10.619Z,13.10
2018-09-02T03:20:04.755Z,13.00
2018-09-02T03:23:58.857Z,12.90
2018-09-02T03:27:52.975Z,12.80
2018-09-02T03:31:46.910Z,12.70
2018-09-02T03:35:40.886Z,12.70
2018-09-02T03:39:34.910Z,12.70
2018-09-02T03:43:28.819Z,12.60
2018-09-02T03:47:22.838Z,12.70
2018-09-02T03:51:17.334Z,12.70
2018-09-02T03:55:11.314Z,12.70
2018-09-02T03:59:10.982Z,12.70
2018-09-02T04:03:05.154Z,12.70
2018-09-02T04:06:59.173Z,12.70
2018-09-02T04:10:53.111Z,12.60
2018-09-02T04:14:47.140Z,12.70
2018-09-02T04:18:41.072Z,12.60
2018-09-02T04:22:35.123Z,12.60
2018-09-02T04:26:29.147Z,12.60
2018-09-02T04:30:23.136Z,12.50
2018-09-02T04:34:17.200Z,12.40
2018-09-02T04:38:11.226Z,12.40
2018-09-02T04:42:05.249Z,12.40
2018-09-02T04:45:59.269Z,12.40
2018-09-02T04:49:53.172Z,12.40
2018-09-02T04:53:47.167Z,12.50
2018-09-02T04:57:42.154Z,12.50
2018-09-02T05:01:36.101Z,12.50
2018-09-02T05:05:30.198Z,12.50
2018-09-02T05:09:24.179Z,12.50
2018-09-02T05:13:18.193Z,12.50
2018-09-02T05:17:12.152Z,12.50
2018-09-02T05:21:06.139Z,12.50
2018-09-02T05:25:00.137Z,12.60
2018-09-02T05:28:54.336Z,12.70
2018-09-02T05:32:48.491Z,12.80
2018-09-02T05:36:42.533Z,12.80
2018-09-02T05:40:36.427Z,12.80
2018-09-02T05:44:30.348Z,12.90
2018-09-02T05:48:24.284Z,13.00
2018-09-02T05:52:18.214Z,13.10
2018-09-02T05:56:12.191Z,13.20
2018-09-02T06:00:06.418Z,13.30
2018-09-02T06:04:00.492Z,13.40
2018-09-02T06:07:55.899Z,13.40
2018-09-02T06:11:49.877Z,13.60
2018-09-02T06:15:45.309Z,13.60
2018-09-02T06:19:39.328Z,13.70
2018-09-02T06:23:33.332Z,13.80
2018-09-02T06:27:27.287Z,13.90
2018-09-02T06:31:21.753Z,14.00
2018-09-02T06:35:15.710Z,14.10
2018-09-02T06:39:11.309Z,14.20
2018-09-02T06:43:05.698Z,14.20
2018-09-02T06:46:59.736Z,14.20
2018-09-02T06:50:54.162Z,14.30
2018-09-02T06:54:48.105Z,14.50
2018-09-02T06:58:42.149Z,14.50
2018-09-02T07:02:36.059Z,14.60
2018-09-02T07:06:30.051Z,14.70
2018-09-02T07:10:24.023Z,14.80
2018-09-02T07:14:18.152Z,14.80
2018-09-02T07:18:12.218Z,14.80
2018-09-02T07:22:06.398Z,14.90
2018-09-02T07:26:00.354Z,15.00
2018-09-02T07:29:54.319Z,15.10
2018-09-02T07:33:48.266Z,15.20
2018-09-02T07:37:43.259Z,15.30
2018-09-02T07:41:37.762Z,15.40
2018-09-02T07:45:31.729Z,15.60
2018-09-02T07:49:25.701Z,15.70
2018-09-02T07:53:19.666Z,15.80
2018-09-02T07:57:13.722Z,16.00
2018-09-02T08:01:07.764Z,16.00
2018-09-02T08:05:01.690Z,16.10
2018-09-02T08:08:55.722Z,16.30
2018-09-02T08:12:49.874Z,16.40
2018-09-02T08:16:43.698Z,16.50
2018-09-02T08:20:37.701Z,16.70
2018-09-02T08:24:31.933Z,16.80
2018-09-02T08:28:25.935Z,17.00
2018-09-02T08:32:19.920Z,17.20
2018-09-02T08:36:13.950Z,17.30
2018-09-02T08:40:07.947Z,17.40
2018-09-02T08:44:01.929Z,17.60
2018-09-02T08:47:55.950Z,17.70
2018-09-02T08:51:50.205Z,17.90
2018-09-02T08:55:44.189Z,18.10
2018-09-02T08:59:38.139Z,18.20
2018-09-02T09:03:32.223Z,18.30
2018-09-02T09:07:27.247Z,18.40
2018-09-02T09:11:21.226Z,18.60
2018-09-02T09:15:15.258Z,18.70
2018-09-02T09:19:09.370Z,18.80
2018-09-02T09:23:03.349Z,18.90
2018-09-02T09:26:58.164Z,19.00
2018-09-02T09:30:52.229Z,19.00
2018-09-02T09:34:47.770Z,19.10
2018-09-02T09:38:41.862Z,19.20
2018-09-02T09:42:36.228Z,19.30
2018-09-02T09:46:30.571Z,19.40
2018-09-02T09:50:24.933Z,19.60
2018-09-02T09:54:19.875Z,19.70
2018-09-02T09:58:14.050Z,19.80
2018-09-02T10:02:08.076Z,19.90
2018-09-02T10:06:02.015Z,20.00
2018-09-02T10:09:55.976Z,20.00
2018-09-02T10:13:50.050Z,20.00
2018-09-02T10:17:44.064Z,20.00
2018-09-02T10:21:38.103Z,20.10
2018-09-02T10:25:33.490Z,20.20
2018-09-02T10:29:27.459Z,20.30
2018-09-02T10:33:21.586Z,20.40
2018-09-02T10:37:15.590Z,20.40
2018-09-02T10:41:09.680Z,20.50
2018-09-02T10:45:03.634Z,20.50
2018-09-02T10:48:57.785Z,20.60
2018-09-02T10:52:51.808Z,20.70
2018-09-02T10:56:45.922Z,20.80
2018-09-02T11:00:39.903Z,20.80
2018-09-02T11:04:33.874Z,20.80
2018-09-02T11:08:27.866Z,20.90
2018-09-02T11:12:21.843Z,20.90
2018-09-02T11:16:15.957Z,21.00
2018-09-02T11:20:10.415Z,21.00
2018-09-02T11:24:04.778Z,21.10
2018-09-02T11:27:58.933Z,21.10
2018-09-02T11:31:53.012Z,21.30
2018-09-02T11:35:47.142Z,21.50
2018-09-02T11:39:41.218Z,21.60
2018-09-02T11:43:35.311Z,21.70
2018-09-02T11:47:29.335Z,21.80
2018-09-02T11:51:23.727Z,21.90
2018-09-02T11:55:17.714Z,22.00
2018-09-02T11:59:11.824Z,22.00
2018-09-02T12:03:05.823Z,22.00
2018-09-02T12:06:59.861Z,22.00
2018-09-02T12:10:53.879Z,22.10
2018-09-02T12:14:47.839Z,22.10
2018-09-02T12:18:41.854Z,22.10
2018-09-02T12:22:35.886Z,22.10
2018-09-02T12:26:30.417Z,22.20
2018-09-02T12:30:24.452Z,22.40
2018-09-02T12:34:18.540Z,22.50
2018-09-02T12:38:12.870Z,22.50
2018-09-02T12:42:09.679Z,22.50
2018-09-02T12:46:06.645Z,22.60
2018-09-02T12:50:06.402Z,22.70
2018-09-02T12:54:00.389Z,22.80
2018-09-02T12:57:54.566Z,22.80
2018-09-02T13:01:48.547Z,23.00
2018-09-02T13:05:42.814Z,23.10
2018-09-02T13:09:37.375Z,23.10
2018-09-02T13:13:31.505Z,23.10
2018-09-02T13:17:25.624Z,23.00
2018-09-02T13:21:19.987Z,22.90
2018-09-02T13:25:14.591Z,23.00
2018-09-02T13:29:08.544Z,23.10
2018-09-02T13:33:02.785Z,23.20
2018-09-02T13:36:56.808Z,23.10
2018-09-02T13:40:50.841Z,23.20
2018-09-02T13:44:45.398Z,23.30
2018-09-02T13:48:39.636Z,23.40
2018-09-02T13:52:33.658Z,23.30
2018-09-02T13:56:27.602Z,23.30
2018-09-02T14:00:21.761Z,23.30
2018-09-02T14:04:16.866Z,23.40
2018-09-02T14:08:10.828Z,23.60
2018-09-02T14:12:04.886Z,23.70
2018-09-02T14:15:58.988Z,23.70
2018-09-02T14:19:53.019Z,23.70
2018-09-02T14:23:47.824Z,23.60
2018-09-02T14:27:42.128Z,23.60
2018-09-02T14:31:36.142Z,23.50
2018-09-02T14:35:30.160Z,23.60
2018-09-02T14:39:24.189Z,23.60
2018-09-02T14:43:18.650Z,23.50
2018-09-02T14:47:12.639Z,23.60
2018-09-02T14:51:06.682Z,23.60
2018-09-02T14:55:00.691Z,23.60
2018-09-02T14:58:54.730Z,23.60
2018-09-02T15:02:48.881Z,23.60
2018-09-02T15:06:43.407Z,23.70
2018-09-02T15:10:37.431Z,23.70
2018-09-02T15:14:31.547Z,23.70
2018-09-02T15:18:25.558Z,23.70
2018-09-02T15:22:20.471Z,23.70
2018-09-02T15:26:14.543Z,23.70
2018-09-02T15:30:08.526Z,23.70
2018-09-02T15:34:02.603Z,23.60
2018-09-02T15:37:56.833Z,23.60
2018-09-02T15:41:50.770Z,23.50
2018-09-02T15:45:44.811Z,23.50
2018-09-02T15:49:38.866Z,23.60
2018-09-02T15:53:32.955Z,23.50
2018-09-02T15:57:27.159Z,23.50
2018-09-02T16:01:22.001Z,23.50
2018-09-02T16:05:16.148Z,23.50
2018-09-02T16:09:11.327Z,23.50
2018-09-02T16:13:05.727Z,23.50
2018-09-02T16:16:59.811Z,23.50
2018-09-02T16:20:53.892Z,23.50
2018-09-02T16:24:52.879Z,23.60
2018-09-02T16:28:47.350Z,23.70
2018-09-02T16:32:41.630Z,24.20
2018-09-02T16:36:35.703Z,24.10
2018-09-02T16:40:29.831Z,24.00
2018-09-02T16:44:24.056Z,24.10
2018-09-02T16:48:18.178Z,24.00
2018-09-02T16:52:13.183Z,24.00
2018-09-02T16:56:07.696Z,23.80
2018-09-02T17:00:01.715Z,23.60
2018-09-02T17:03:59.210Z,23.60
2018-09-02T17:07:53.396Z,23.50
2018-09-02T17:11:47.815Z,23.50
2018-09-02T17:15:42.253Z,23.40
2018-09-02T17:19:38.768Z,23.40
2018-09-02T17:23:33.032Z,23.30
2018-09-02T17:27:27.934Z,23.20
2018-09-02T17:31:24.037Z,23.10
2018-09-02T17:35:18.664Z,23.00
2018-09-02T17:39:13.625Z,22.90
2018-09-02T17:43:08.131Z,22.80
2018-09-02T17:47:02.462Z,22.70
2018-09-02T17:50:56.776Z,22.60
2018-09-02T17:54:51.122Z,22.50
2018-09-02T17:58:45.269Z,22.50
2018-09-02T18:02:39.591Z,22.40
2018-09-02T18:06:33.692Z,22.40
2018-09-02T18:10:29.589Z,22.40
2018-09-02T18:14:23.731Z,22.30
2018-09-02T18:18:17.789Z,22.30
2018-09-02T18:22:12.168Z,22.20
2018-09-02T18:26:06.434Z,22.10
2018-09-02T18:30:00.594Z,22.00
2018-09-02T18:33:54.661Z,21.90
2018-09-02T18:37:48.789Z,21.90
2018-09-02T18:41:42.739Z,21.80
2018-09-02T18:45:36.685Z,21.70
2018-09-02T18:49:30.842Z,21.70
2018-09-02T18:53:26.698Z,21.70
2018-09-02T18:57:21.056Z,21.60
2018-09-02T19:01:16.765Z,21.50
2018-09-02T19:05:11.139Z,21.50
2018-09-02T19:09:07.703Z,21.40
2018-09-02T19:13:01.845Z,21.40
2018-09-02T19:16:55.814Z,21.40
2018-09-02T19:20:50.041Z,21.30
2018-09-02T19:24:44.153Z,21.30
2018-09-02T19:28:38.230Z,21.20
2018-09-02T19:32:32.662Z,21.10
2018-09-02T19:36:26.827Z,21.00
2018-09-02T19:40:20.840Z,21.00
2018-09-02T19:44:14.799Z,21.00
2018-09-02T19:48:08.912Z,20.90
2018-09-02T19:52:03.040Z,20.90
2018-09-02T19:55:57.024Z,20.90
2018-09-02T19:59:51.087Z,20.80
2018-09-02T20:03:46.167Z,20.80
2018-09-02T20:07:40.273Z,20.80
2018-09-02T20:11:34.227Z,20.80
2018-09-02T20:15:28.351Z,20.80
2018-09-02T20:19:22.240Z,20.70
2018-09-02T20:23:16.330Z,20.70
2018-09-02T20:27:10.287Z,20.70
2018-09-02T20:31:04.491Z,20.70
2018-09-02T20:34:58.506Z,20.60
2018-09-02T20:38:52.584Z,20.60
2018-09-02T20:42:46.612Z,20.50
2018-09-02T20:46:40.567Z,20.50
2018-09-02T20:50:34.640Z,20.60
2018-09-02T20:54:29.203Z,20.50
2018-09-02T20:58:23.383Z,20.50
2018-09-02T21:02:17.449Z,20.40
2018-09-02T21:06:11.389Z,20.30
2018-09-02T21:10:06.102Z,20.30
2018-09-02T21:14:00.198Z,20.30
2018-09-02T21:17:54.492Z,20.30
2018-09-02T21:21:49.000Z,20.30
2018-09-02T21:25:43.027Z,20.20
2018-09-02T21:29:37.998Z,20.10
2018-09-02T21:33:32.022Z,20.10
2018-09-02T21:37:26.007Z,20.10
2018-09-02T21:41:20.747Z,20.10
2018-09-02T21:45:17.899Z,20.10
2018-09-02T21:49:12.050Z,20.00
2018-09-02T21:53:06.261Z,20.00
2018-09-02T21:57:01.200Z,20.00
2018-09-02T22:00:55.243Z,20.00
2018-09-02T22:04:49.246Z,20.00
2018-09-02T22:08:43.666Z,19.90
2018-09-02T22:12:37.660Z,19.90
2018-09-02T22:16:32.079Z,19.80
2018-09-02T22:20:26.219Z,19.80
2018-09-02T22:24:20.211Z,19.80
2018-09-02T22:28:16.781Z,19.80
2018-09-02T22:32:10.831Z,19.70
2018-09-02T22:36:04.778Z,19.70
2018-09-02T22:39:58.714Z,19.70
2018-09-02T22:43:52.709Z,19.70
2018-09-02T22:47:46.698Z,19.70
2018-09-02T22:51:41.567Z,19.70
2018-09-02T22:55:35.523Z,19.70
2018-09-02T22:59:29.511Z,19.60
2018-09-02T23:03:30.249Z,19.60
2018-09-02T23:07:24.219Z,19.60
2018-09-02T23:11:18.175Z,19.60
2018-09-02T23:15:12.176Z,19.60
2018-09-02T23:19:06.291Z,19.60
2018-09-02T23:23:00.971Z,19.50
2018-09-02T23:26:55.087Z,19.50
2018-09-02T23:30:49.169Z,19.50
2018-09-02T23:34:43.547Z,19.50
2018-09-02T23:38:37.542Z,19.40
2018-09-02T23:42:31.663Z,19.40
2018-09-02T23:46:25.586Z,19.40
2018-09-02T23:50:19.655Z,19.30
2018-09-02T23:54:13.629Z,19.30
2018-09-02T23:58:07.923Z,19.40
